Time;durP1;ratioP1;P1;durP2;ratioP2;P2;SDS_P1;SDS_P2;PMS_P1;PMS_P2;Temp;Humidity;BMP_temperature;BMP_pressure;BME280_temperature;BME280_humidity;BME280_pressure;Samples;Min_cycle;Max_cycle;Signal;HPM_P1;HPM_P2
2022/09/26 00:00:30;;;;;;;;;;;18.50;68.80;;;;;;4515351;31;20052;-62
2022/09/26 00:02:56;;;;;;;;;;;18.50;68.70;;;;;;4513863;31;20032;-61
2022/09/26 00:05:25;;;;;;;;;;;18.50;68.70;;;;;;4509109;31;20066;-61
2022/09/26 00:07:50;;;;;;;;;;;18.50;68.70;;;;;;4512447;31;20024;-61
2022/09/26 00:10:16;;;;;;;;;;;18.50;68.70;;;;;;4514535;31;20381;-62
2022/09/26 00:12:42;;;;;;;;;;;18.50;68.70;;;;;;4515725;31;20028;-62
2022/09/26 00:15:08;;;;;;;;;;;18.50;68.60;;;;;;4514491;31;20483;-62
2022/09/26 00:17:34;;;;;;;;;;;18.50;68.70;;;;;;4515330;31;20025;-62
2022/09/26 00:20:00;;;;;;;;;;;18.40;68.60;;;;;;4513683;31;20013;-62
2022/09/26 00:22:25;;;;;;;;;;;18.40;68.50;;;;;;4505306;31;20036;-62
2022/09/26 00:24:51;;;;;;;;;;;18.40;68.50;;;;;;4512108;31;20035;-62
2022/09/26 00:27:18;;;;;;;;;;;18.40;68.50;;;;;;4513543;31;20009;-61
2022/09/26 00:29:44;;;;;;;;;;;18.40;68.50;;;;;;4512881;31;20037;-61
2022/09/26 00:32:10;;;;;;;;;;;18.40;68.50;;;;;;4503528;31;20039;-61
2022/09/26 00:34:35;;;;;;;;;;;18.40;68.50;;;;;;4508247;31;20032;-61
2022/09/26 00:37:01;;;;;;;;;;;18.40;68.50;;;;;;4514430;31;20097;-61
2022/09/26 00:39:27;;;;;;;;;;;18.40;68.50;;;;;;4514491;31;20082;-62
2022/09/26 00:41:52;;;;;;;;;;;18.40;68.50;;;;;;4514502;31;20025;-62
2022/09/26 00:44:30;;;;;;;;;;;18.40;68.50;;;;;;4514429;31;20036;-61
2022/09/26 00:46:56;;;;;;;;;;;18.40;68.50;;;;;;4515074;31;20079;-62
2022/09/26 00:49:21;;;;;;;;;;;18.40;68.40;;;;;;4513918;31;20021;-62
2022/09/26 00:51:54;;;;;;;;;;;18.40;68.50;;;;;;4514866;31;20028;-61
2022/09/26 00:54:20;;;;;;;;;;;18.40;68.40;;;;;;4513289;31;20017;-61
2022/09/26 00:56:48;;;;;;;;;;;18.40;68.40;;;;;;4503491;31;20033;-61
2022/09/26 00:59:16;;;;;;;;;;;18.40;68.30;;;;;;4498756;31;20251;-61
2022/09/26 01:01:42;;;;;;;;;;;18.40;68.40;;;;;;4507802;31;20121;-61
2022/09/26 01:04:08;;;;;;;;;;;18.40;68.30;;;;;;4514650;31;20538;-61
2022/09/26 01:06:34;;;;;;;;;;;18.40;68.40;;;;;;4512574;31;20013;-61
2022/09/26 01:09:03;;;;;;;;;;;18.40;68.30;;;;;;4514399;31;20024;-62
2022/09/26 01:11:30;;;;;;;;;;;18.40;68.30;;;;;;4514231;31;20446;-61
2022/09/26 01:13:56;;;;;;;;;;;18.40;68.30;;;;;;4513857;31;20040;-62
2022/09/26 01:16:22;;;;;;;;;;;18.40;68.20;;;;;;4513368;31;20074;-62
2022/09/26 01:18:48;;;;;;;;;;;18.40;68.20;;;;;;4513204;31;20655;-62
2022/09/26 01:21:20;;;;;;;;;;;18.40;68.30;;;;;;4514543;31;20035;-61
2022/09/26 01:24:12;;;;;;;;;;;18.30;68.20;;;;;;4513486;31;20033;-61
2022/09/26 01:26:44;;;;;;;;;;;18.40;68.20;;;;;;4503655;31;20052;-62
2022/09/26 01:29:29;;;;;;;;;;;18.30;68.30;;;;;;4512348;31;20044;-62
2022/09/26 01:34:49;;;;;;;;;;;18.30;68.20;;;;;;4513185;31;20140;-62
2022/09/26 01:37:29;;;;;;;;;;;18.40;68.20;;;;;;4513100;31;20110;-62
2022/09/26 01:40:15;;;;;;;;;;;18.30;68.20;;;;;;4509617;31;20911;-62
2022/09/26 01:42:41;;;;;;;;;;;18.30;68.20;;;;;;4513332;31;20417;-61
2022/09/26 01:45:13;;;;;;;;;;;18.30;68.20;;;;;;4512463;31;20025;-63
2022/09/26 01:47:41;;;;;;;;;;;18.40;68.20;;;;;;4510603;31;20071;-62
2022/09/26 01:50:19;;;;;;;;;;;18.30;68.20;;;;;;4512501;31;20040;-62
2022/09/26 01:53:03;;;;;;;;;;;18.30;68.20;;;;;;4512514;31;20041;-62
2022/09/26 01:55:34;;;;;;;;;;;18.30;68.20;;;;;;4514041;31;20037;-61
2022/09/26 01:58:06;;;;;;;;;;;18.30;68.20;;;;;;4513067;31;20037;-62
2022/09/26 02:00:33;;;;;;;;;;;18.30;68.20;;;;;;4513309;31;20045;-62
2022/09/26 02:02:59;;;;;;;;;;;18.30;68.30;;;;;;4512279;31;20040;-62
2022/09/26 02:05:31;;;;;;;;;;;18.30;68.20;;;;;;4512636;31;20092;-62
2022/09/26 02:07:59;;;;;;;;;;;18.30;68.20;;;;;;4513756;31;20055;-61
2022/09/26 02:10:27;;;;;;;;;;;18.30;68.20;;;;;;4524758;31;20159;-62
2022/09/26 02:12:56;;;;;;;;;;;18.30;68.20;;;;;;4514021;31;20133;-61
2022/09/26 02:15:24;;;;;;;;;;;18.30;68.20;;;;;;4512886;31;20032;-61
2022/09/26 02:18:00;;;;;;;;;;;18.30;68.20;;;;;;4513069;31;20032;-61
2022/09/26 02:20:29;;;;;;;;;;;18.30;68.20;;;;;;4513290;31;20080;-62
2022/09/26 02:22:55;;;;;;;;;;;18.30;68.20;;;;;;4512707;31;20087;-62
2022/09/26 02:25:21;;;;;;;;;;;18.30;68.20;;;;;;4513836;31;20032;-63
2022/09/26 02:27:48;;;;;;;;;;;18.30;68.20;;;;;;4512573;31;20031;-62
2022/09/26 02:30:14;;;;;;;;;;;18.30;68.20;;;;;;4513487;31;20036;-62
2022/09/26 02:32:40;;;;;;;;;;;18.30;68.20;;;;;;4512809;31;20078;-62
2022/09/26 02:35:52;;;;;;;;;;;18.30;68.20;;;;;;4512928;31;20044;-62
2022/09/26 02:37:55;;;;;;;;;;;18.30;68.20;;;;;;4513317;31;19997;-62
2022/09/26 02:40:23;;;;;;;;;;;18.30;68.20;;;;;;4511255;31;20154;-63
2022/09/26 02:42:55;;;;;;;;;;;18.30;68.20;;;;;;4513577;31;20041;-62
2022/09/26 02:45:41;;;;;;;;;;;18.30;68.10;;;;;;4512946;31;20017;-62
2022/09/26 02:48:25;;;;;;;;;;;18.30;68.20;;;;;;4512365;31;20036;-62
2022/09/26 02:50:59;;;;;;;;;;;18.30;68.10;;;;;;4512477;31;20151;-62
2022/09/26 02:53:38;;;;;;;;;;;18.30;68.10;;;;;;4511617;31;20036;-62
2022/09/26 02:56:13;;;;;;;;;;;18.30;68.10;;;;;;4512593;31;20157;-62
2022/09/26 02:58:59;;;;;;;;;;;18.30;68.10;;;;;;4512533;31;20028;-62
2022/09/26 03:01:28;;;;;;;;;;;18.30;68.10;;;;;;4496997;31;20508;-62
2022/09/26 03:04:01;;;;;;;;;;;18.20;68.00;;;;;;4510935;31;20032;-63
2022/09/26 03:06:40;;;;;;;;;;;18.30;68.00;;;;;;4511107;31;20134;-63
2022/09/26 03:09:06;;;;;;;;;;;18.30;68.00;;;;;;4509644;31;20050;-64
2022/09/26 03:11:32;;;;;;;;;;;18.30;68.00;;;;;;4511413;31;20149;-64
2022/09/26 03:13:58;;;;;;;;;;;18.30;68.00;;;;;;4511305;31;20037;-64
2022/09/26 03:16:26;;;;;;;;;;;18.20;67.90;;;;;;4510681;31;20036;-64
2022/09/26 03:19:01;;;;;;;;;;;18.20;67.90;;;;;;4512223;31;20052;-63
2022/09/26 03:21:27;;;;;;;;;;;18.20;68.00;;;;;;4512974;31;20040;-63
2022/09/26 03:23:53;;;;;;;;;;;18.30;68.00;;;;;;4512256;31;20025;-64
2022/09/26 03:26:23;;;;;;;;;;;18.20;67.90;;;;;;4512573;31;20044;-64
2022/09/26 03:28:50;;;;;;;;;;;18.20;67.90;;;;;;4505274;31;20029;-63
2022/09/26 03:31:20;;;;;;;;;;;18.20;67.90;;;;;;4513642;31;20024;-64
2022/09/26 03:33:47;;;;;;;;;;;18.20;67.90;;;;;;4515887;31;20520;-65
2022/09/26 03:36:13;;;;;;;;;;;18.20;67.90;;;;;;4527276;31;20138;-63
2022/09/26 03:38:38;;;;;;;;;;;18.20;67.90;;;;;;4515970;31;20105;-64
2022/09/26 03:41:04;;;;;;;;;;;18.20;67.90;;;;;;4527480;31;20017;-63
2022/09/26 03:43:30;;;;;;;;;;;18.20;67.90;;;;;;4527572;31;20458;-63
2022/09/26 03:46:01;;;;;;;;;;;18.20;67.90;;;;;;4515569;31;20508;-63
2022/09/26 03:48:26;;;;;;;;;;;18.20;67.80;;;;;;4515057;31;20637;-63
2022/09/26 03:50:52;;;;;;;;;;;18.20;67.90;;;;;;4515833;31;20027;-63
2022/09/26 03:53:18;;;;;;;;;;;18.20;67.80;;;;;;4511032;31;20072;-63
2022/09/26 03:55:45;;;;;;;;;;;18.20;67.90;;;;;;4514099;31;20466;-63
2022/09/26 03:58:10;;;;;;;;;;;18.20;67.90;;;;;;4514989;31;20027;-63
2022/09/26 04:00:37;;;;;;;;;;;18.20;67.80;;;;;;4515221;31;20448;-63
2022/09/26 04:03:03;;;;;;;;;;;18.20;67.90;;;;;;4527321;31;20422;-63
2022/09/26 04:05:29;;;;;;;;;;;18.20;67.80;;;;;;4513508;31;20358;-63
2022/09/26 04:07:54;;;;;;;;;;;18.20;67.80;;;;;;4515537;31;20025;-63
2022/09/26 04:10:20;;;;;;;;;;;18.20;67.80;;;;;;4514407;31;20039;-63
2022/09/26 04:12:46;;;;;;;;;;;18.20;67.80;;;;;;4515587;31;20055;-63
2022/09/26 04:15:12;;;;;;;;;;;18.20;67.80;;;;;;4514672;31;20024;-63
2022/09/26 04:17:38;;;;;;;;;;;18.20;67.80;;;;;;4514985;31;20035;-63
2022/09/26 04:20:04;;;;;;;;;;;18.20;67.90;;;;;;4514867;31;20025;-63
2022/09/26 04:22:30;;;;;;;;;;;18.20;67.80;;;;;;4514799;31;20078;-63
2022/09/26 04:24:56;;;;;;;;;;;18.20;67.80;;;;;;4514236;31;20025;-63
2022/09/26 04:27:26;;;;;;;;;;;18.20;67.80;;;;;;4504484;31;20025;-63
2022/09/26 04:29:52;;;;;;;;;;;18.10;67.70;;;;;;4514732;31;20033;-63
2022/09/26 04:32:18;;;;;;;;;;;18.20;67.80;;;;;;4514422;31;20021;-63
2022/09/26 04:34:44;;;;;;;;;;;18.20;67.80;;;;;;4514519;31;20040;-63
2022/09/26 04:37:10;;;;;;;;;;;18.10;67.80;;;;;;4514789;31;20036;-64
2022/09/26 04:39:44;;;;;;;;;;;18.20;67.70;;;;;;4514221;31;20041;-63
2022/09/26 04:42:09;;;;;;;;;;;18.20;67.70;;;;;;4514788;31;20496;-63
2022/09/26 04:44:35;;;;;;;;;;;18.10;67.70;;;;;;4514111;31;20028;-63
2022/09/26 04:47:01;;;;;;;;;;;18.20;67.70;;;;;;4515350;31;20389;-63
2022/09/26 04:49:28;;;;;;;;;;;18.10;67.70;;;;;;4514268;31;20031;-63
2022/09/26 04:51:54;;;;;;;;;;;18.20;67.80;;;;;;4514596;31;20025;-63
2022/09/26 04:54:20;;;;;;;;;;;18.10;67.70;;;;;;4513236;31;20143;-63
2022/09/26 04:56:46;;;;;;;;;;;18.20;67.70;;;;;;4514159;31;20133;-63
2022/09/26 04:59:12;;;;;;;;;;;18.10;67.60;;;;;;4514808;31;20159;-64
2022/09/26 05:01:38;;;;;;;;;;;18.10;67.70;;;;;;4513826;31;20032;-63
2022/09/26 05:04:04;;;;;;;;;;;18.10;67.70;;;;;;4515014;31;20039;-63
2022/09/26 05:06:29;;;;;;;;;;;18.10;67.70;;;;;;4513796;31;20172;-63
2022/09/26 05:08:56;;;;;;;;;;;18.10;67.70;;;;;;4514397;31;20497;-65
2022/09/26 05:11:24;;;;;;;;;;;18.10;67.70;;;;;;4514287;31;20028;-63
2022/09/26 05:13:50;;;;;;;;;;;18.10;67.70;;;;;;4512797;31;20164;-63
2022/09/26 05:16:18;;;;;;;;;;;18.10;67.60;;;;;;4514316;31;20041;-63
2022/09/26 05:18:47;;;;;;;;;;;18.10;67.70;;;;;;4513682;31;20032;-64
2022/09/26 05:21:13;;;;;;;;;;;18.10;67.70;;;;;;4514660;31;20048;-63
2022/09/26 05:26:25;;;;;;;;;;;18.10;67.60;;;;;;4513024;31;20590;-63
2022/09/26 05:28:52;;;;;;;;;;;18.10;67.60;;;;;;4513916;31;20117;-63
2022/09/26 05:31:18;;;;;;;;;;;18.10;67.60;;;;;;4513556;31;20036;-63
2022/09/26 05:33:45;;;;;;;;;;;18.10;67.60;;;;;;4514375;31;20061;-63
2022/09/26 05:36:11;;;;;;;;;;;18.10;67.60;;;;;;4513296;31;20114;-63
2022/09/26 05:38:37;;;;;;;;;;;18.10;67.60;;;;;;4514424;31;20037;-64
2022/09/26 05:41:02;;;;;;;;;;;18.10;67.60;;;;;;4513524;31;20028;-63
2022/09/26 05:43:29;;;;;;;;;;;18.10;67.60;;;;;;4513658;31;20143;-64
2022/09/26 05:46:03;;;;;;;;;;;18.10;67.60;;;;;;4513452;31;20036;-65
2022/09/26 05:48:32;;;;;;;;;;;18.10;67.60;;;;;;4512579;31;20029;-63
2022/09/26 05:51:08;;;;;;;;;;;18.10;67.60;;;;;;4511733;31;20635;-63
2022/09/26 05:53:34;;;;;;;;;;;18.10;67.60;;;;;;4510863;31;20029;-63
2022/09/26 05:56:00;;;;;;;;;;;18.10;67.60;;;;;;4509966;31;20013;-63
2022/09/26 05:58:30;;;;;;;;;;;18.10;67.60;;;;;;4512241;31;20166;-63
2022/09/26 06:00:59;;;;;;;;;;;18.10;67.60;;;;;;4525240;31;20103;-63
2022/09/26 06:03:26;;;;;;;;;;;18.10;67.70;;;;;;4500357;31;20048;-63
2022/09/26 06:05:52;;;;;;;;;;;18.10;67.60;;;;;;4504782;31;20013;-63
2022/09/26 06:08:18;;;;;;;;;;;18.10;67.60;;;;;;4513823;31;20021;-63
2022/09/26 06:10:43;;;;;;;;;;;18.10;67.60;;;;;;4524897;31;20048;-63
2022/09/26 06:13:09;;;;;;;;;;;18.10;67.60;;;;;;4525831;31;20143;-63
2022/09/26 06:15:35;;;;;;;;;;;18.10;67.60;;;;;;4513091;31;20078;-63
2022/09/26 06:18:05;;;;;;;;;;;18.10;67.60;;;;;;4512966;31;20040;-63
2022/09/26 06:20:32;;;;;;;;;;;18.10;67.60;;;;;;4513503;31;20028;-63
2022/09/26 06:22:58;;;;;;;;;;;18.00;67.50;;;;;;4512232;31;20071;-63
2022/09/26 06:25:24;;;;;;;;;;;18.00;67.50;;;;;;4509322;31;20178;-63
2022/09/26 06:27:53;;;;;;;;;;;18.10;67.50;;;;;;4510821;31;20037;-63
2022/09/26 06:30:20;;;;;;;;;;;18.00;67.50;;;;;;4512128;31;20040;-63
2022/09/26 06:32:46;;;;;;;;;;;18.00;67.50;;;;;;4511782;31;20087;-63
2022/09/26 06:35:12;;;;;;;;;;;18.10;67.50;;;;;;4511372;31;20120;-63
2022/09/26 06:37:37;;;;;;;;;;;18.00;67.50;;;;;;4511906;31;20522;-63
2022/09/26 06:40:03;;;;;;;;;;;18.00;67.50;;;;;;4512317;31;20025;-63
2022/09/26 06:42:36;;;;;;;;;;;18.00;67.60;;;;;;4513689;31;20151;-63
2022/09/26 06:45:06;;;;;;;;;;;18.00;68.30;;;;;;4512312;31;20032;-63
2022/09/26 06:47:32;;;;;;;;;;;18.00;67.20;;;;;;4513093;31;20028;-63
2022/09/26 06:49:58;;;;;;;;;;;18.00;67.00;;;;;;4512605;31;20040;-63
2022/09/26 06:52:25;;;;;;;;;;;18.00;67.20;;;;;;4512751;31;20039;-63
2022/09/26 06:54:53;;;;;;;;;;;18.00;67.20;;;;;;4512858;31;20021;-62
2022/09/26 06:57:19;;;;;;;;;;;18.00;67.40;;;;;;4512243;31;20494;-62
2022/09/26 06:59:45;;;;;;;;;;;17.90;67.40;;;;;;4525507;31;20021;-62
2022/09/26 07:02:11;;;;;;;;;;;17.90;67.50;;;;;;4512361;31;20029;-63
2022/09/26 07:04:37;;;;;;;;;;;17.90;67.50;;;;;;4513371;31;20166;-63
2022/09/26 07:07:03;;;;;;;;;;;18.00;67.60;;;;;;4527999;31;20032;-62
2022/09/26 07:09:29;;;;;;;;;;;18.00;67.60;;;;;;4512075;31;20029;-62
2022/09/26 07:11:54;;;;;;;;;;;18.00;67.60;;;;;;4513320;31;20277;-63
2022/09/26 07:14:22;;;;;;;;;;;18.00;67.70;;;;;;4515151;31;20070;-63
2022/09/26 07:16:48;;;;;;;;;;;18.00;67.80;;;;;;4515497;31;20394;-63
2022/09/26 07:19:15;;;;;;;;;;;18.00;67.70;;;;;;4504085;31;20080;-63
2022/09/26 07:21:41;;;;;;;;;;;18.00;67.70;;;;;;4516018;31;20084;-63
2022/09/26 07:24:07;;;;;;;;;;;18.00;67.90;;;;;;4515812;31;20027;-63
2022/09/26 07:26:33;;;;;;;;;;;17.90;67.70;;;;;;4515426;31;20105;-63
2022/09/26 07:28:59;;;;;;;;;;;17.90;67.70;;;;;;4515951;31;20039;-62
2022/09/26 07:31:25;;;;;;;;;;;18.00;67.90;;;;;;4515214;31;20025;-62
2022/09/26 07:33:51;;;;;;;;;;;17.90;68.60;;;;;;4516191;31;20029;-63
2022/09/26 07:36:19;;;;;;;;;;;18.00;67.90;;;;;;4515144;31;20029;-62
2022/09/26 07:38:48;;;;;;;;;;;18.00;67.90;;;;;;4515991;31;20195;-63
2022/09/26 07:41:15;;;;;;;;;;;18.00;67.90;;;;;;4514365;31;20077;-63
2022/09/26 07:43:41;;;;;;;;;;;18.00;67.90;;;;;;4514991;31;20044;-63
2022/09/26 07:51:37;;;;;;;;;;;17.90;67.70;;;;;;4515676;31;20025;-63
2022/09/26 07:54:04;;;;;;;;;;;18.00;67.70;;;;;;4511370;31;20037;-63
2022/09/26 07:56:32;;;;;;;;;;;17.90;67.70;;;;;;4508576;31;20052;-63
2022/09/26 07:59:00;;;;;;;;;;;17.90;67.80;;;;;;4486296;31;25497;-63
2022/09/26 08:01:27;;;;;;;;;;;18.00;67.90;;;;;;4505956;31;20367;-62
2022/09/26 08:03:56;;;;;;;;;;;17.90;67.80;;;;;;4514885;31;20452;-63
2022/09/26 08:06:22;;;;;;;;;;;18.00;68.00;;;;;;4526368;31;20165;-64
2022/09/26 08:08:51;;;;;;;;;;;18.00;67.90;;;;;;4515211;31;20021;-63
2022/09/26 08:11:19;;;;;;;;;;;18.00;67.90;;;;;;4512569;31;20041;-63
2022/09/26 08:13:45;;;;;;;;;;;18.00;67.90;;;;;;4513904;31;20118;-63
2022/09/26 08:16:13;;;;;;;;;;;18.00;68.00;;;;;;4513777;31;20039;-63
2022/09/26 08:18:39;;;;;;;;;;;18.00;68.10;;;;;;4514145;31;20082;-66
2022/09/26 08:21:05;;;;;;;;;;;18.00;68.20;;;;;;4514740;31;20064;-64
2022/09/26 08:23:34;;;;;;;;;;;18.00;68.30;;;;;;4526340;31;20036;-63
2022/09/26 08:26:03;;;;;;;;;;;18.00;68.30;;;;;;4514785;31;20033;-63
2022/09/26 08:28:29;;;;;;;;;;;18.10;68.30;;;;;;4525694;31;20029;-63
2022/09/26 08:31:04;;;;;;;;;;;18.20;68.30;;;;;;4513765;31;20389;-63
2022/09/26 08:33:33;;;;;;;;;;;18.20;68.00;;;;;;4513138;31;20485;-63
2022/09/26 08:36:03;;;;;;;;;;;18.30;67.80;;;;;;4512311;31;20021;-64
2022/09/26 08:38:29;;;;;;;;;;;18.40;67.70;;;;;;4514014;31;20090;-64
2022/09/26 08:41:01;;;;;;;;;;;18.50;67.50;;;;;;4512835;31;20037;-65
2022/09/26 08:43:45;;;;;;;;;;;18.60;67.00;;;;;;4512844;31;20387;-65
2022/09/26 08:46:48;;;;;;;;;;;18.80;66.70;;;;;;4511779;31;20028;-65
2022/09/26 08:49:19;;;;;;;;;;;18.90;66.40;;;;;;4512219;31;20037;-65
2022/09/26 08:51:49;;;;;;;;;;;19.10;66.10;;;;;;4512912;31;20084;-65
2022/09/26 08:54:17;;;;;;;;;;;19.20;65.80;;;;;;4512454;31;20052;-64
2022/09/26 08:56:47;;;;;;;;;;;19.40;65.50;;;;;;4512353;31;20080;-64
2022/09/26 08:59:26;;;;;;;;;;;19.50;65.20;;;;;;4512912;31;20143;-64
2022/09/26 09:01:54;;;;;;;;;;;19.70;64.90;;;;;;4511616;31;20090;-65
2022/09/26 09:04:22;;;;;;;;;;;19.80;64.70;;;;;;4513329;31;20041;-63
2022/09/26 09:06:49;;;;;;;;;;;19.90;64.30;;;;;;4512412;31;20085;-64
2022/09/26 09:09:15;;;;;;;;;;;20.00;64.10;;;;;;4513110;31;20045;-63
2022/09/26 09:11:44;;;;;;;;;;;20.20;63.90;;;;;;4513582;31;20147;-63
2022/09/26 09:14:16;;;;;;;;;;;20.30;63.70;;;;;;4512637;31;20024;-63
2022/09/26 09:17:01;;;;;;;;;;;20.30;63.40;;;;;;4514295;31;20024;-63
2022/09/26 09:19:38;;;;;;;;;;;20.40;63.20;;;;;;4513382;31;20024;-62
2022/09/26 09:22:25;;;;;;;;;;;20.50;63.10;;;;;;4511419;31;20033;-64
2022/09/26 09:24:53;;;;;;;;;;;20.60;63.00;;;;;;4513140;31;20032;-64
2022/09/26 09:27:25;;;;;;;;;;;20.60;62.80;;;;;;4511381;31;20032;-64
2022/09/26 09:30:01;;;;;;;;;;;20.70;62.70;;;;;;4512609;31;20101;-63
2022/09/26 09:32:29;;;;;;;;;;;20.70;62.60;;;;;;4511454;31;20480;-64
2022/09/26 09:34:55;;;;;;;;;;;20.80;62.50;;;;;;4512966;31;20033;-63
2022/09/26 09:37:27;;;;;;;;;;;20.80;62.50;;;;;;4513159;31;20039;-63
2022/09/26 09:39:53;;;;;;;;;;;20.90;62.40;;;;;;4512519;31;20075;-63
2022/09/26 09:42:21;;;;;;;;;;;21.00;62.20;;;;;;4514197;31;20174;-63
2022/09/26 09:45:03;;;;;;;;;;;21.00;62.10;;;;;;4509383;31;20155;-64
2022/09/26 09:47:29;;;;;;;;;;;21.10;62.00;;;;;;4511998;31;20546;-64
2022/09/26 09:49:55;;;;;;;;;;;21.10;61.90;;;;;;4512472;31;20045;-64
2022/09/26 09:52:34;;;;;;;;;;;21.20;61.90;;;;;;4513184;31;20024;-64
2022/09/26 09:55:08;;;;;;;;;;;21.20;61.70;;;;;;4510773;31;20050;-64
2022/09/26 09:57:52;;;;;;;;;;;21.30;61.40;;;;;;4513104;31;20064;-64
2022/09/26 10:00:23;;;;;;;;;;;21.40;61.30;;;;;;4511868;31;20083;-63
2022/09/26 10:02:49;;;;;;;;;;;21.50;61.20;;;;;;4513335;31;20033;-64
2022/09/26 10:05:32;;;;;;;;;;;21.50;61.00;;;;;;4512944;31;20035;-64
2022/09/26 10:07:58;;;;;;;;;;;21.60;60.90;;;;;;4513718;31;20037;-63
2022/09/26 10:10:26;;;;;;;;;;;21.60;60.80;;;;;;4511341;31;20409;-64
2022/09/26 10:12:54;;;;;;;;;;;21.70;60.70;;;;;;4513208;31;20107;-64
2022/09/26 10:15:25;;;;;;;;;;;21.70;60.70;;;;;;4512627;31;20474;-64
2022/09/26 10:18:02;;;;;;;;;;;21.70;60.60;;;;;;4512581;31;20059;-63
2022/09/26 10:20:51;;;;;;;;;;;21.70;60.80;;;;;;4512148;31;20035;-63
2022/09/26 10:23:34;;;;;;;;;;;21.60;60.80;;;;;;4512486;31;20037;-62
2022/09/26 10:26:02;;;;;;;;;;;21.50;60.90;;;;;;4511009;31;20036;-64
2022/09/26 10:28:43;;;;;;;;;;;21.50;61.10;;;;;;4512701;31;20035;-64
2022/09/26 10:31:10;;;;;;;;;;;21.30;61.20;;;;;;4512383;31;20029;-63
2022/09/26 10:33:41;;;;;;;;;;;21.30;61.70;;;;;;4512682;31;20017;-64
2022/09/26 10:36:16;;;;;;;;;;;21.20;61.80;;;;;;4511666;31;20021;-64
2022/09/26 10:41:56;;;;;;;;;;;21.00;62.30;;;;;;4493408;31;20021;-64
2022/09/26 10:44:26;;;;;;;;;;;20.90;62.40;;;;;;4510751;31;20028;-63
2022/09/26 10:46:56;;;;;;;;;;;20.80;62.70;;;;;;4512942;31;20044;-64
2022/09/26 10:49:24;;;;;;;;;;;20.70;62.80;;;;;;4509289;31;20665;-64
2022/09/26 10:51:58;;;;;;;;;;;20.60;63.20;;;;;;4512769;31;20431;-65
2022/09/26 10:54:31;;;;;;;;;;;20.50;63.50;;;;;;4512909;31;20085;-64
2022/09/26 10:56:58;;;;;;;;;;;20.40;63.90;;;;;;4512653;31;20033;-64
2022/09/26 10:59:26;;;;;;;;;;;20.40;64.10;;;;;;4513516;31;20086;-64
2022/09/26 11:01:55;;;;;;;;;;;20.30;64.30;;;;;;4490202;31;37803;-64
2022/09/26 11:07:17;;;;;;;;;;;20.20;64.70;;;;;;4509917;31;20088;-65
2022/09/26 11:09:44;;;;;;;;;;;20.10;64.80;;;;;;4511439;31;20158;-65
2022/09/26 11:12:24;;;;;;;;;;;20.00;65.00;;;;;;4510269;31;20032;-66
2022/09/26 11:15:10;;;;;;;;;;;20.00;65.20;;;;;;4511540;31;20031;-65
2022/09/26 11:17:43;;;;;;;;;;;20.00;65.40;;;;;;4510398;31;20028;-66
2022/09/26 11:20:11;;;;;;;;;;;19.90;65.40;;;;;;4510050;31;20040;-66
2022/09/26 11:22:41;;;;;;;;;;;19.90;65.60;;;;;;4511437;31;20039;-65
2022/09/26 11:25:17;;;;;;;;;;;19.90;65.60;;;;;;4512122;31;20040;-65
2022/09/26 11:27:49;;;;;;;;;;;19.80;65.60;;;;;;4508786;31;20086;-65
2022/09/26 11:30:21;;;;;;;;;;;19.80;65.90;;;;;;4511843;31;20017;-64
2022/09/26 11:32:48;;;;;;;;;;;19.80;65.80;;;;;;4509457;31;20170;-64
2022/09/26 11:35:16;;;;;;;;;;;19.80;66.10;;;;;;4510452;31;20033;-62
2022/09/26 11:37:54;;;;;;;;;;;19.70;66.00;;;;;;4512258;31;20098;-64
2022/09/26 11:40:33;;;;;;;;;;;19.70;66.20;;;;;;4510634;31;20021;-65
2022/09/26 11:43:05;;;;;;;;;;;19.70;66.30;;;;;;4511584;31;20033;-65
2022/09/26 11:45:33;;;;;;;;;;;19.60;66.40;;;;;;4509736;31;20087;-65
2022/09/26 11:47:59;;;;;;;;;;;19.60;66.40;;;;;;4511683;31;20021;-65
2022/09/26 11:50:38;;;;;;;;;;;19.60;66.60;;;;;;4511301;31;20059;-67
2022/09/26 11:53:29;;;;;;;;;;;19.60;66.90;;;;;;4511771;31;20028;-66
2022/09/26 11:55:55;;;;;;;;;;;19.60;66.60;;;;;;4513216;31;20450;-66
2022/09/26 11:58:38;;;;;;;;;;;19.60;66.70;;;;;;4514281;31;20096;-66
2022/09/26 12:01:22;;;;;;;;;;;19.60;67.70;;;;;;4512123;31;20036;-64
2022/09/26 12:03:56;;;;;;;;;;;19.60;67.00;;;;;;4493495;31;20040;-64
2022/09/26 12:06:32;;;;;;;;;;;19.50;66.90;;;;;;4512604;31;20048;-65
2022/09/26 12:08:59;;;;;;;;;;;19.50;67.20;;;;;;4513826;31;20040;-65
2022/09/26 12:11:37;;;;;;;;;;;19.50;67.10;;;;;;4514354;31;20145;-64
2022/09/26 12:14:17;;;;;;;;;;;19.50;67.00;;;;;;4513682;31;20098;-65
2022/09/26 12:16:48;;;;;;;;;;;19.50;67.20;;;;;;4512767;31;20163;-65
2022/09/26 12:19:13;;;;;;;;;;;19.50;67.30;;;;;;4513753;31;20229;-64
2022/09/26 12:25:02;;;;;;;;;;;19.50;67.30;;;;;;4512432;31;20029;-66
2022/09/26 12:27:43;;;;;;;;;;;19.50;67.40;;;;;;4513486;31;20037;-65
2022/09/26 12:30:14;;;;;;;;;;;19.50;67.40;;;;;;4512339;31;20055;-65
2022/09/26 12:32:40;;;;;;;;;;;19.40;68.30;;;;;;4514632;31;20161;-65
2022/09/26 12:35:06;;;;;;;;;;;19.40;67.50;;;;;;4514130;31;20076;-66
2022/09/26 12:37:40;;;;;;;;;;;19.40;67.50;;;;;;4511587;31;20159;-65
2022/09/26 12:40:13;;;;;;;;;;;19.40;67.50;;;;;;4508144;31;20037;-65
2022/09/26 12:42:45;;;;;;;;;;;19.40;67.60;;;;;;4515435;31;20005;-65
2022/09/26 12:45:15;;;;;;;;;;;19.40;67.60;;;;;;4514601;31;20038;-65
2022/09/26 12:47:47;;;;;;;;;;;19.40;67.60;;;;;;4514690;31;20490;-65
2022/09/26 12:50:16;;;;;;;;;;;19.30;67.60;;;;;;4514704;31;20167;-65
2022/09/26 12:53:00;;;;;;;;;;;19.30;67.50;;;;;;4514194;31;20373;-65
2022/09/26 12:55:50;;;;;;;;;;;19.40;67.70;;;;;;4515058;31;20146;-65
2022/09/26 12:58:32;;;;;;;;;;;19.40;67.50;;;;;;4508039;31;20024;-65
2022/09/26 13:01:00;;;;;;;;;;;19.40;67.30;;;;;;4514376;31;20193;-65
2022/09/26 13:03:49;;;;;;;;;;;19.50;67.00;;;;;;4514811;31;20037;-65
2022/09/26 13:06:18;;;;;;;;;;;19.60;66.90;;;;;;4499738;31;20047;-65
2022/09/26 13:08:56;;;;;;;;;;;19.60;66.60;;;;;;4514673;31;20036;-65
2022/09/26 13:11:22;;;;;;;;;;;19.70;66.40;;;;;;4514378;31;20146;-65
2022/09/26 13:14:17;;;;;;;;;;;19.90;66.30;;;;;;4514018;31;20140;-65
2022/09/26 13:16:56;;;;;;;;;;;20.00;66.00;;;;;;4492282;31;20095;-65
2022/09/26 13:19:28;;;;;;;;;;;20.10;65.70;;;;;;4511433;31;20033;-65
2022/09/26 13:21:54;;;;;;;;;;;20.30;65.40;;;;;;4514037;31;20194;-65
2022/09/26 13:24:24;;;;;;;;;;;20.40;65.10;;;;;;4514167;31;20020;-65
2022/09/26 13:26:53;;;;;;;;;;;20.50;64.80;;;;;;4513924;31;20034;-66
2022/09/26 13:29:20;;;;;;;;;;;20.70;64.60;;;;;;4502587;31;20021;-65
2022/09/26 13:31:54;;;;;;;;;;;20.80;64.30;;;;;;4513537;31;20080;-65
2022/09/26 13:34:23;;;;;;;;;;;20.90;64.10;;;;;;4514272;31;20021;-65
2022/09/26 13:36:50;;;;;;;;;;;20.90;63.80;;;;;;4514025;31;20469;-65
2022/09/26 13:39:21;;;;;;;;;;;21.00;63.60;;;;;;4512938;31;20039;-66
2022/09/26 13:42:00;;;;;;;;;;;21.10;63.50;;;;;;4514178;31;20013;-65
2022/09/26 13:44:43;;;;;;;;;;;21.20;63.30;;;;;;4513493;31;20032;-65
2022/09/26 13:47:12;;;;;;;;;;;21.20;63.10;;;;;;4514600;31;20020;-66
2022/09/26 13:49:56;;;;;;;;;;;21.30;63.00;;;;;;4502689;31;20033;-66
2022/09/26 13:52:25;;;;;;;;;;;21.40;62.90;;;;;;4497829;31;20426;-65
2022/09/26 13:54:52;;;;;;;;;;;21.40;62.70;;;;;;4510059;31;20021;-65
2022/09/26 13:57:30;;;;;;;;;;;21.40;62.70;;;;;;4513385;31;20039;-65
2022/09/26 13:59:56;;;;;;;;;;;21.50;62.60;;;;;;4514120;31;20036;-65
2022/09/26 14:02:30;;;;;;;;;;;21.50;62.60;;;;;;4506778;31;20031;-65
2022/09/26 14:05:02;;;;;;;;;;;21.50;62.50;;;;;;4508619;31;20158;-65
2022/09/26 14:10:33;;;;;;;;;;;21.60;62.30;;;;;;4510440;31;20457;-65
2022/09/26 14:13:02;;;;;;;;;;;21.60;62.30;;;;;;4513838;31;20397;-65
2022/09/26 14:15:46;;;;;;;;;;;21.60;62.30;;;;;;4512849;31;20040;-65
2022/09/26 14:18:11;;;;;;;;;;;21.60;62.30;;;;;;4496270;31;20025;-66
2022/09/26 14:20:51;;;;;;;;;;;21.60;62.30;;;;;;4507984;31;20106;-66
2022/09/26 14:23:35;;;;;;;;;;;21.60;62.30;;;;;;4496440;31;20498;-65
2022/09/26 14:26:05;;;;;;;;;;;21.60;62.30;;;;;;4513484;31;20024;-65
2022/09/26 14:28:32;;;;;;;;;;;21.50;62.30;;;;;;4513268;31;20035;-66
2022/09/26 14:31:10;;;;;;;;;;;21.60;62.40;;;;;;4513115;31;20182;-66
2022/09/26 14:33:36;;;;;;;;;;;21.60;62.50;;;;;;4525999;31;20029;-65
2022/09/26 14:36:20;;;;;;;;;;;21.60;62.50;;;;;;4512547;31;20029;-66
2022/09/26 14:38:47;;;;;;;;;;;21.60;62.60;;;;;;4512264;31;20082;-65
2022/09/26 14:41:18;;;;;;;;;;;21.60;62.80;;;;;;4485346;31;26135;-66
2022/09/26 14:43:44;;;;;;;;;;;21.60;62.60;;;;;;4510668;31;20381;-64
2022/09/26 14:46:16;;;;;;;;;;;21.60;62.60;;;;;;4508628;31;20040;-63
2022/09/26 14:48:42;;;;;;;;;;;21.60;62.60;;;;;;4507275;31;20465;-65
2022/09/26 14:51:11;;;;;;;;;;;21.70;62.60;;;;;;4512562;31;20033;-63
2022/09/26 14:53:41;;;;;;;;;;;21.70;62.60;;;;;;4511413;31;20075;-64
2022/09/26 14:56:15;;;;;;;;;;;21.70;62.60;;;;;;4510973;31;20568;-63